Time;durP1;ratioP1;P1;durP2;ratioP2;P2;SDS_P1;SDS_P2;PMS_P1;PMS_P2;Temp;Humidity;BMP_temperature;BMP_pressure;BME280_temperature;BME280_humidity;BME280_pressure;Samples;Min_cycle;Max_cycle;Signal;HPM_P1;HPM_P2
2021/12/16 00:04:55;;;;;;;21.43;13.70;;;;;;;4.93;100.00;100303.13;5031777;28;20200;-56
2021/12/16 00:09:54;;;;;;;20.90;14.47;;;;;;;4.93;100.00;100323.72;5031986;28;20205;-56
2021/12/16 00:31:53;;;;;;;19.73;13.70;;;;;;;4.72;100.00;100335.56;5029929;28;20237;-56
2021/12/16 00:34:22;;;;;;;24.20;14.10;;;;;;;4.68;100.00;100340.66;5031098;28;20196;-56
2021/12/16 00:36:51;;;;;;;22.03;14.03;;;;;;;4.70;100.00;100344.97;5031102;28;20294;-56
2021/12/16 00:39:22;;;;;;;22.73;13.83;;;;;;;4.71;100.00;100345.84;5031086;28;20259;-56
2021/12/16 00:41:54;;;;;;;19.53;13.43;;;;;;;4.69;100.00;100352.69;5031023;28;20199;-57
2021/12/16 00:44:46;;;;;;;20.17;13.70;;;;;;;4.69;100.00;100342.38;5030909;28;20287;-56
2021/12/16 00:47:27;;;;;;;19.03;13.70;;;;;;;4.67;100.00;100350.09;5030648;28;20201;-55
2021/12/16 00:50:04;;;;;;;18.17;13.83;;;;;;;4.69;100.00;100345.81;5030870;28;20271;-56
2021/12/16 00:55:27;;;;;;;20.60;14.63;;;;;;;4.68;100.00;100340.66;5030824;28;20197;-58
2021/12/16 00:57:54;;;;;;;22.57;14.37;;;;;;;4.69;100.00;100334.69;5031038;28;20209;-56
2021/12/16 01:00:25;;;;;;;22.87;14.20;;;;;;;4.60;100.00;100342.31;5030760;28;20685;-58
2021/12/16 01:03:08;;;;;;;20.30;14.20;;;;;;;4.62;100.00;100331.22;5030457;28;20233;-59
2021/12/16 02:02:23;;;;;;;25.00;15.67;;;;;;;4.22;100.00;100308.56;5009943;28;20227;-57
2021/12/16 02:05:10;;;;;;;23.87;14.93;;;;;;;4.19;100.00;100303.38;5029718;28;20295;-57
2021/12/16 02:07:54;;;;;;;23.77;14.83;;;;;;;4.16;100.00;100293.94;5029844;28;20673;-56
2021/12/16 02:10:28;;;;;;;23.20;14.87;;;;;;;4.22;100.00;100299.13;5029997;28;20197;-57
2021/12/16 02:13:12;;;;;;;41.47;15.80;;;;;;;4.18;100.00;100296.50;5029559;28;20221;-56
2021/12/16 02:29:52;;;;;;;21.17;13.97;;;;;;;4.19;100.00;100296.53;5029693;28;20208;-57
2021/12/16 02:32:36;;;;;;;24.73;15.33;;;;;;;4.13;100.00;100298.19;5029432;28;20228;-56
2021/12/16 02:35:24;;;;;;;26.53;14.67;;;;;;;4.10;100.00;100286.16;5029584;28;20194;-60
2021/12/16 02:37:52;;;;;;;22.53;13.67;;;;;;;4.27;100.00;100292.34;5029444;28;20197;-59
2021/12/16 02:40:20;;;;;;;22.63;13.47;;;;;;;4.14;100.00;100293.06;5029435;28;20207;-56
2021/12/16 02:42:56;;;;;;;23.73;14.80;;;;;;;4.07;100.00;100290.41;5029444;28;20197;-57
2021/12/16 02:48:30;;;;;;;26.43;14.33;;;;;;;4.19;100.00;100281.13;5032321;28;20200;-56
2021/12/16 02:50:58;;;;;;;24.43;14.57;;;;;;;4.18;100.00;100294.81;5032891;28;20197;-56
2021/12/16 02:53:26;;;;;;;21.17;13.80;;;;;;;4.23;100.00;100292.28;5033082;28;20579;-56
2021/12/16 02:55:55;;;;;;;27.27;14.43;;;;;;;4.27;100.00;100304.34;5032806;28;20200;-56
2021/12/16 02:58:22;;;;;;;23.57;14.33;;;;;;;4.20;100.00;100303.38;5033078;28;20571;-56
2021/12/16 03:00:56;;;;;;;25.10;14.27;;;;;;;4.18;100.00;100305.09;5033070;28;20661;-55
2021/12/16 03:03:23;;;;;;;23.47;14.60;;;;;;;4.23;100.00;100310.28;5032779;28;20236;-55
2021/12/16 03:05:50;;;;;;;22.23;13.60;;;;;;;4.21;100.00;100301.69;5032770;28;20295;-55
2021/12/16 03:08:17;;;;;;;21.67;13.67;;;;;;;4.22;100.00;100300.84;5032680;28;20204;-55
2021/12/16 03:13:31;;;;;;;23.47;14.47;;;;;;;4.18;100.00;100305.09;5030050;28;20578;-58
2021/12/16 03:16:04;;;;;;;26.87;15.07;;;;;;;4.16;100.00;100306.81;5032650;28;20200;-59
2021/12/16 03:18:40;;;;;;;24.60;13.80;;;;;;;4.14;100.00;100303.34;5032525;28;20696;-59
2021/12/16 03:21:16;;;;;;;22.47;13.67;;;;;;;4.11;100.00;100308.44;5032515;28;20258;-59
2021/12/16 03:24:00;;;;;;;23.07;13.77;;;;;;;4.14;100.00;100308.50;5032499;28;20200;-59
2021/12/16 03:32:12;;;;;;;22.60;13.77;;;;;;;4.01;100.00;100314.34;5009430;28;20283;-59
2021/12/16 03:34:45;;;;;;;21.87;13.10;;;;;;;3.99;100.00;100309.19;5032525;28;20775;-59
2021/12/16 03:37:18;;;;;;;24.10;14.13;;;;;;;3.95;100.00;100312.56;5032188;28;20205;-60
2021/12/16 03:39:51;;;;;;;22.77;14.00;;;;;;;3.86;100.00;100317.59;5032047;28;20206;-56
2021/12/16 03:42:24;;;;;;;23.70;14.50;;;;;;;3.79;100.00;100296.97;5032151;28;20194;-56
2021/12/16 03:44:58;;;;;;;24.07;13.93;;;;;;;3.90;100.00;100311.66;5032131;28;20229;-59
2021/12/16 03:47:36;;;;;;;20.37;12.97;;;;;;;3.81;100.00;100309.00;5031980;28;20212;-58
2021/12/16 03:50:08;;;;;;;23.40;13.77;;;;;;;3.70;100.00;100320.84;5031850;28;20197;-59
2021/12/16 03:52:36;;;;;;;21.60;13.27;;;;;;;3.72;100.00;100311.47;5032079;28;20224;-59
2021/12/16 03:55:05;;;;;;;20.97;13.53;;;;;;;3.49;100.00;100279.53;5031995;28;20696;-59
2021/12/16 03:57:34;;;;;;;23.87;13.70;;;;;;;3.55;100.00;100313.81;5031569;28;20197;-59
2021/12/16 04:00:01;;;;;;;26.60;13.97;;;;;;;3.54;100.00;100301.84;5030983;28;20680;-59
2021/12/16 04:02:32;;;;;;;24.10;13.87;;;;;;;3.59;100.00;100307.91;5029645;28;20719;-58
2021/12/16 04:05:00;;;;;;;23.20;13.70;;;;;;;3.66;100.00;100303.69;5033829;28;20196;-59
2021/12/16 04:07:31;;;;;;;23.93;14.00;;;;;;;3.63;100.00;100301.94;5040674;28;20197;-58
2021/12/16 04:09:59;;;;;;;23.10;13.27;;;;;;;3.78;100.00;100302.97;5035261;28;20201;-58
2021/12/16 04:12:28;;;;;;;22.30;13.60;;;;;;;3.70;100.00;100304.59;5036734;28;20227;-56
2021/12/16 04:15:00;;;;;;;20.53;12.70;;;;;;;3.48;100.00;100283.81;5033680;28;20669;-57
2021/12/16 04:17:30;;;;;;;23.70;12.73;;;;;;;3.61;100.00;100307.91;5039740;28;20202;-56
2021/12/16 04:19:58;;;;;;;19.50;12.50;;;;;;;3.46;100.00;100285.50;5036581;28;20197;-55
2021/12/16 04:22:30;;;;;;;21.80;13.93;;;;;;;3.58;100.00;100311.31;5040927;28;20292;-55
2021/12/16 04:25:00;;;;;;;23.87;13.73;;;;;;;3.52;100.00;100310.34;5034315;28;20196;-59
2021/12/16 04:27:28;;;;;;;20.93;13.47;;;;;;;3.57;100.00;100304.44;5035669;28;20599;-59
2021/12/16 04:29:57;;;;;;;28.87;14.37;;;;;;;3.58;100.00;100301.03;5040438;28;20191;-59
2021/12/16 04:32:24;;;;;;;21.87;13.37;;;;;;;3.52;100.00;100308.66;5039099;28;20605;-58
2021/12/16 04:34:52;;;;;;;22.97;13.50;;;;;;;3.53;100.00;100299.25;5040191;28;20613;-59
2021/12/16 04:37:19;;;;;;;24.70;13.53;;;;;;;3.36;100.00;100275.09;5041003;28;20203;-58
2021/12/16 04:39:47;;;;;;;25.23;12.87;;;;;;;3.56;100.00;100307.00;5025323;28;20201;-59
2021/12/16 04:42:16;;;;;;;21.03;12.53;;;;;;;3.56;100.00;100307.00;5045085;28;20204;-58
2021/12/16 04:44:44;;;;;;;23.60;12.73;;;;;;;3.55;100.00;100312.97;5040836;28;20204;-58
2021/12/16 04:47:13;;;;;;;23.23;14.17;;;;;;;3.53;100.00;100312.94;5044918;28;20188;-60
2021/12/16 04:49:40;;;;;;;20.53;12.87;;;;;;;3.57;100.00;100309.56;5038646;28;20567;-58
2021/12/16 04:52:14;;;;;;;20.50;13.03;;;;;;;3.57;100.00;100304.44;5041175;28;20221;-58
2021/12/16 04:54:41;;;;;;;20.87;13.10;;;;;;;3.52;100.00;100311.22;5038609;28;20594;-59
2021/12/16 04:57:09;;;;;;;20.03;12.80;;;;;;;3.43;100.00;100302.53;5038337;28;20631;-60
2021/12/16 04:59:38;;;;;;;23.30;13.40;;;;;;;3.55;100.00;100318.09;5039857;28;20209;-58
2021/12/16 05:02:08;;;;;;;25.13;13.47;;;;;;;3.54;100.00;100317.22;5040566;28;20776;-55
2021/12/16 05:04:37;;;;;;;23.10;14.57;;;;;;;3.58;100.00;100319.00;5039425;28;20204;-56
2021/12/16 05:07:06;;;;;;;24.67;14.23;;;;;;;3.53;100.00;100312.94;5037910;28;20192;-58
2021/12/16 05:10:02;;;;;;;21.33;12.30;;;;;;;3.46;100.00;100329.13;5039095;28;20237;-58
2021/12/16 05:12:32;;;;;;;21.13;12.73;;;;;;;3.49;100.00;100334.28;5035881;28;20233;-58
2021/12/16 05:14:59;;;;;;;22.13;13.13;;;;;;;3.50;100.00;100327.47;5033471;28;20740;-59
2021/12/16 05:17:29;;;;;;;21.23;12.73;;;;;;;3.44;100.00;100338.50;5030385;28;20231;-60
2021/12/16 05:20:02;;;;;;;23.53;13.63;;;;;;;3.49;100.00;100331.72;5030227;28;20271;-58
2021/12/16 05:25:22;;;;;;;22.17;12.60;;;;;;;3.56;100.00;100330.09;5017125;28;20475;-59
2021/12/16 05:27:49;;;;;;;20.70;12.63;;;;;;;3.48;100.00;100327.44;5010047;28;20287;-60
2021/12/16 05:30:17;;;;;;;18.63;12.50;;;;;;;3.51;100.00;100334.28;5009551;28;20221;-57
2021/12/16 05:32:46;;;;;;;19.27;12.57;;;;;;;3.53;100.00;100333.47;5010387;28;20244;-60
2021/12/16 05:35:18;;;;;;;24.07;13.20;;;;;;;3.60;100.00;100344.69;5010624;28;20729;-62
2021/12/16 05:37:46;;;;;;;19.70;12.37;;;;;;;3.61;100.00;100342.13;5037562;28;20322;-56
2021/12/16 05:40:16;;;;;;;22.60;12.47;;;;;;;3.58;100.00;100338.69;5028276;28;20240;-56
2021/12/16 05:42:43;;;;;;;20.20;12.97;;;;;;;3.46;100.00;100326.56;5028480;28;20248;-56
2021/12/16 05:45:12;;;;;;;18.33;11.87;;;;;;;3.56;100.00;100346.34;5028915;28;20244;-62
2021/12/16 05:47:40;;;;;;;20.10;13.10;;;;;;;3.48;100.00;100330.00;5029672;28;20229;-56
2021/12/16 05:50:09;;;;;;;21.17;12.93;;;;;;;3.44;100.00;100310.25;5043451;28;20234;-57
2021/12/16 05:52:38;;;;;;;19.93;12.23;;;;;;;3.61;100.00;100341.28;5049459;28;20315;-62
2021/12/16 05:55:06;;;;;;;16.57;11.70;;;;;;;3.69;100.00;100342.22;5049334;28;20227;-56
2021/12/16 05:57:33;;;;;;;18.20;11.33;;;;;;;3.75;100.00;100344.00;5049483;28;20311;-56
2021/12/16 06:00:00;;;;;;;23.67;12.93;;;;;;;3.64;100.00;100318.19;5034603;28;20694;-62
2021/12/16 06:02:27;;;;;;;16.53;11.70;;;;;;;3.71;100.00;100347.41;5029632;28;20376;-62
2021/12/16 06:04:54;;;;;;;19.00;11.80;;;;;;;3.74;100.00;100352.53;5029644;28;20221;-60
2021/12/16 06:07:21;;;;;;;19.17;11.90;;;;;;;3.59;100.00;100333.56;5029344;28;20677;-62
2021/12/16 06:09:49;;;;;;;20.03;11.97;;;;;;;3.75;100.00;100350.00;5029677;28;20250;-62
2021/12/16 06:12:17;;;;;;;17.63;11.37;;;;;;;3.86;100.00;100350.97;5029211;28;20234;-62
2021/12/16 06:15:01;;;;;;;16.33;11.03;;;;;;;3.85;100.00;100350.97;5029192;28;20256;-62
2021/12/16 06:26:26;;;;;;;16.87;10.97;;;;;;;4.01;100.00;100355.44;5052360;28;20559;-61
2021/12/16 06:28:46;;;;;;;17.77;11.53;;;;;;;3.92;100.00;100339.94;5053415;28;20216;-61
2021/12/16 06:31:15;;;;;;;41.20;12.93;;;;;;;4.07;100.00;100354.63;5052515;28;20250;-56
2021/12/16 06:33:42;;;;;;;47.73;14.43;;;;;;;4.10;100.00;100352.97;5041213;28;20228;-61
2021/12/16 06:36:09;;;;;;;32.73;11.93;;;;;;;4.14;100.00;100352.16;5032857;28;20225;-59
2021/12/16 06:38:36;;;;;;;25.17;12.00;;;;;;;4.18;100.00;100364.19;5033032;28;20739;-58
2021/12/16 06:41:05;;;;;;;21.57;12.23;;;;;;;4.24;100.00;100356.53;5032723;28;20308;-57
2021/12/16 06:43:33;;;;;;;20.33;11.53;;;;;;;4.28;100.00;100368.59;5033028;28;20229;-59
2021/12/16 06:46:04;;;;;;;18.30;12.00;;;;;;;4.02;100.00;100336.63;5032303;28;20264;-58
2021/12/16 06:48:34;;;;;;;21.60;13.07;;;;;;;4.19;100.00;100368.47;5033684;28;20279;-60
2021/12/16 06:51:06;;;;;;;19.70;12.60;;;;;;;4.25;100.00;100358.28;5052685;28;20703;-58
2021/12/16 06:53:45;;;;;;;23.87;13.23;;;;;;;4.24;100.00;100361.69;5052628;28;20232;-58
2021/12/16 06:56:19;;;;;;;20.50;13.07;;;;;;;4.28;100.00;100358.31;5052453;28;20239;-59
2021/12/16 06:58:49;;;;;;;24.27;12.03;;;;;;;4.41;100.00;100359.28;5053013;28;20220;-58
2021/12/16 07:01:31;;;;;;;20.77;12.27;;;;;;;4.43;100.00;100338.72;5052144;28;20223;-59
2021/12/16 07:03:58;;;;;;;19.37;11.33;;;;;;;4.61;100.00;100369.75;5052284;28;20367;-59
2021/12/16 07:06:29;;;;;;;18.40;11.57;;;;;;;4.70;100.00;100372.41;5052499;28;20227;-59
2021/12/16 07:09:02;;;;;;;17.97;11.40;;;;;;;4.65;100.00;100366.34;5052380;28;20224;-58
2021/12/16 07:11:36;;;;;;;16.23;10.93;;;;;;;4.65;100.00;100363.78;5052166;28;20278;-58
2021/12/16 07:14:05;;;;;;;18.47;11.70;;;;;;;4.76;100.00;100367.28;5051686;28;20231;-58
2021/12/16 07:16:32;;;;;;;20.17;11.27;;;;;;;4.78;100.00;100375.03;5052313;28;20740;-58
2021/12/16 07:19:00;;;;;;;15.20;11.27;;;;;;;4.82;100.00;100377.66;5047355;28;20227;-59
2021/12/16 07:21:27;;;;;;;18.13;12.27;;;;;;;4.90;100.00;100370.84;5032371;28;20597;-58
2021/12/16 07:23:54;;;;;;;20.40;11.77;;;;;;;4.95;100.00;100376.03;5032128;28;20630;-58
2021/12/16 07:26:21;;;;;;;20.03;11.93;;;;;;;5.02;100.00;100377.78;5032280;28;20276;-59
2021/12/16 07:28:49;;;;;;;16.90;12.07;;;;;;;5.15;100.00;100377.03;5031475;28;20231;-57
2021/12/16 07:31:16;;;;;;;17.50;11.63;;;;;;;5.18;100.00;100381.34;5032217;28;20261;-57
2021/12/16 07:33:43;;;;;;;18.33;11.83;;;;;;;5.23;100.00;100380.50;5031411;28;20229;-59
2021/12/16 07:36:11;;;;;;;24.50;12.07;;;;;;;5.26;100.00;100379.69;5032072;28;20226;-58
2021/12/16 07:38:38;;;;;;;17.57;11.17;;;;;;;5.01;100.00;100348.63;5031853;28;20261;-58
2021/12/16 07:41:05;;;;;;;19.53;11.37;;;;;;;5.21;100.00;100369.34;5031929;28;20239;-58
2021/12/16 07:43:54;;;;;;;20.73;11.57;;;;;;;5.27;100.00;100369.41;5031015;28;20223;-59
2021/12/16 07:46:22;;;;;;;19.13;11.80;;;;;;;5.25;100.00;100368.53;5031818;28;20256;-61
2021/12/16 07:48:49;;;;;;;18.27;11.03;;;;;;;5.33;100.00;100369.41;5035333;28;20783;-59
2021/12/16 07:51:17;;;;;;;18.93;11.70;;;;;;;5.18;100.00;100328.16;5051756;28;20246;-59
2021/12/16 07:53:44;;;;;;;16.53;11.80;;;;;;;5.49;100.00;100367.81;5051204;28;20598;-60
2021/12/16 07:56:11;;;;;;;18.30;11.77;;;;;;;5.50;100.00;100354.09;5051385;28;20226;-59
2021/12/16 07:58:39;;;;;;;15.30;10.63;;;;;;;5.56;100.00;100369.53;5050719;28;20225;-59
2021/12/16 08:01:08;;;;;;;19.47;12.23;;;;;;;5.61;100.00;100373.03;5051317;28;20311;-59
2021/12/16 08:03:37;;;;;;;16.77;11.47;;;;;;;5.68;100.00;100364.47;5050957;28;20234;-58
2021/12/16 08:06:08;;;;;;;19.70;10.90;;;;;;;5.71;100.00;100369.63;5051086;28;20216;-56
2021/12/16 08:08:35;;;;;;;18.33;11.90;;;;;;;5.83;100.00;100361.97;5051065;28;20220;-57
2021/12/16 08:11:04;;;;;;;15.67;11.43;;;;;;;5.85;100.00;100361.97;5051174;28;20220;-57
2021/12/16 08:13:31;;;;;;;18.53;12.10;;;;;;;5.91;100.00;100366.31;5050482;28;20232;-57
2021/12/16 08:15:59;;;;;;;17.63;11.20;;;;;;;5.98;100.00;100362.91;5043419;28;20227;-58
2021/12/16 08:18:26;;;;;;;16.20;10.97;;;;;;;5.93;100.00;100350.00;5042946;28;20225;-57
2021/12/16 08:20:55;;;;;;;16.27;10.53;;;;;;;6.01;100.00;100353.44;5041722;28;20676;-57
2021/12/16 08:23:24;;;;;;;15.90;10.50;;;;;;;5.99;100.00;100356.88;5038452;28;20228;-56
2021/12/16 08:25:51;;;;;;;18.63;11.00;;;;;;;5.91;100.00;100363.72;5038390;28;20225;-56
2021/12/16 08:28:18;;;;;;;15.60;11.17;;;;;;;5.81;100.00;100360.22;5040179;28;20249;-56
2021/12/16 08:30:48;;;;;;;20.47;12.07;;;;;;;5.75;100.00;100360.22;5043057;28;20230;-56
2021/12/16 08:33:16;;;;;;;15.30;11.60;;;;;;;5.74;100.00;100353.34;5030618;28;20255;-57
2021/12/16 08:35:45;;;;;;;17.27;11.23;;;;;;;5.79;100.00;100367.09;5030685;28;20227;-56
2021/12/16 08:38:16;;;;;;;17.53;11.47;;;;;;;5.88;100.00;100363.66;5030642;28;20308;-55
2021/12/16 08:40:45;;;;;;;14.77;10.17;;;;;;;6.03;100.00;100361.19;5030799;28;20220;-57
2021/12/16 08:43:13;;;;;;;22.87;11.43;;;;;;;6.17;100.00;100360.38;5029931;28;20221;-57
2021/12/16 08:45:42;;;;;;;20.87;11.33;;;;;;;6.14;100.00;100331.16;5029962;28;20267;-57
2021/12/16 08:48:10;;;;;;;16.43;11.43;;;;;;;6.31;100.00;100347.53;5030377;28;20229;-59
2021/12/16 08:50:40;;;;;;;17.57;11.10;;;;;;;6.39;100.00;100332.06;5030354;28;20241;-57
2021/12/16 08:53:10;;;;;;;17.00;11.43;;;;;;;6.62;100.00;100348.41;5030518;28;20237;-59
2021/12/16 08:55:41;;;;;;;14.20;10.73;;;;;;;6.72;100.00;100349.28;5030289;28;20304;-60
2021/12/16 08:58:08;;;;;;;16.13;11.30;;;;;;;6.67;100.00;100325.19;5030325;28;20264;-60
2021/12/16 09:00:40;;;;;;;16.20;10.63;;;;;;;6.90;100.00;100350.13;5034062;28;20778;-61
2021/12/16 09:03:07;;;;;;;20.27;12.27;;;;;;;7.06;99.92;100345.81;5050052;28;20326;-61
2021/12/16 09:05:35;;;;;;;18.13;11.63;;;;;;;7.14;98.88;100348.38;5050267;28;20224;-61
2021/12/16 09:08:03;;;;;;;18.80;11.57;;;;;;;7.09;98.85;100325.16;5050285;28;20221;-61
2021/12/16 09:10:33;;;;;;;69.00;15.37;;;;;;;7.19;98.81;100344.06;5050025;28;20239;-58
2021/12/16 09:13:07;;;;;;;34.27;12.50;;;;;;;7.35;97.80;100343.16;5049555;28;20754;-59
2021/12/16 09:15:37;;;;;;;24.67;14.13;;;;;;;7.48;97.65;100334.50;5049982;28;20220;-57
2021/12/16 09:18:05;;;;;;;67.37;15.57;;;;;;;7.63;97.53;100338.78;5050137;28;20220;-56
2021/12/16 09:20:33;;;;;;;47.73;14.07;;;;;;;7.63;96.82;100336.19;5049739;28;20220;-57
2021/12/16 09:23:00;;;;;;;225.17;23.10;;;;;;;7.68;96.61;100324.09;5049846;28;20705;-56
2021/12/16 09:25:28;;;;;;;96.60;16.67;;;;;;;7.59;97.35;100316.41;5049924;28;20220;-57
2021/12/16 09:27:55;;;;;;;53.73;13.60;;;;;;;7.88;96.52;100331.78;5049746;28;20275;-57
2021/12/16 09:30:27;;;;;;;193.93;21.77;;;;;;;8.01;96.54;100342.03;5047114;28;20227;-56
2021/12/16 09:32:58;;;;;;;74.87;16.60;;;;;;;8.15;96.27;100320.41;5030212;28;20225;-59
2021/12/16 09:35:26;;;;;;;23.67;12.20;;;;;;;8.05;95.89;100326.50;5029858;28;20229;-57
2021/12/16 09:37:54;;;;;;;25.53;11.73;;;;;;;7.99;96.68;100317.09;5029769;28;20229;-56
2021/12/16 09:40:25;;;;;;;25.63;13.07;;;;;;;8.08;95.88;100313.56;5029688;28;20311;-58
2021/12/16 09:42:53;;;;;;;94.90;18.30;;;;;;;8.19;96.70;100314.38;5029085;28;20587;-58
2021/12/16 09:45:23;;;;;;;47.23;15.13;;;;;;;8.12;95.59;100276.50;5029612;28;20258;-58
2021/12/16 09:47:51;;;;;;;23.23;12.80;;;;;;;8.16;95.21;100312.66;5029632;28;20321;-57
2021/12/16 09:50:22;;;;;;;20.20;12.30;;;;;;;8.12;95.18;100312.69;5029424;28;20221;-59
2021/12/16 09:52:49;;;;;;;31.70;13.70;;;;;;;8.24;95.67;100308.28;5028956;28;20205;-57
2021/12/16 09:55:16;;;;;;;17.80;12.67;;;;;;;8.24;94.31;100307.47;5028679;28;20316;-58
2021/12/16 09:57:43;;;;;;;18.67;11.40;;;;;;;8.15;93.99;100304.91;5033921;28;20197;-57
2021/12/16 10:00:14;;;;;;;17.87;11.73;;;;;;;8.10;94.80;100304.94;5033891;28;20201;-57
2021/12/16 10:02:42;;;;;;;16.53;11.60;;;;;;;7.94;94.64;100295.56;5033454;28;20237;-57
2021/12/16 10:05:10;;;;;;;18.73;11.93;;;;;;;7.88;96.05;100299.03;5013858;28;20213;-57
2021/12/16 10:07:37;;;;;;;17.57;12.40;;;;;;;7.85;96.22;100286.13;5013709;28;20229;-58
2021/12/16 10:10:09;;;;;;;20.80;12.17;;;;;;;7.82;96.95;100296.47;5030189;28;20295;-58
2021/12/16 10:12:40;;;;;;;14.23;11.27;;;;;;;7.92;95.89;100285.22;5033599;28;20296;-56
2021/12/16 10:17:23;;;;;;;20.37;12.47;;;;;;;7.83;97.09;100262.00;5033695;28;20221;-58
2021/12/16 10:18:05;;;;;;;13.00;9.60;;;;;;;7.83;95.93;100269.78;5033747;28;20201;-57
2021/12/16 10:20:34;;;;;;;11.70;8.23;;;;;;;7.83;94.33;100279.25;5033753;28;20583;-59
2021/12/16 10:23:05;;;;;;;9.47;8.20;;;;;;;7.83;94.58;100268.91;5033646;28;20200;-57
2021/12/16 10:25:35;;;;;;;14.10;8.93;;;;;;;7.91;94.47;100262.81;5033489;28;20201;-58
2021/12/16 10:28:09;;;;;;;13.23;9.47;;;;;;;7.95;94.84;100258.50;5033525;28;20194;-58
2021/12/16 10:30:41;;;;;;;14.50;9.20;;;;;;;7.85;95.38;100237.03;5033724;28;20278;-58
2021/12/16 10:33:16;;;;;;;12.07;9.67;;;;;;;7.81;95.18;100250.81;5015905;28;20222;-57
2021/12/16 10:35:47;;;;;;;17.80;10.10;;;;;;;7.88;95.49;100247.34;5029245;28;20216;-57
2021/12/16 10:38:16;;;;;;;11.67;9.27;;;;;;;7.83;93.74;100249.09;5052831;28;20303;-57
2021/12/16 10:40:47;;;;;;;10.93;8.00;;;;;;;7.86;92.23;100249.09;5052702;28;20247;-57
2021/12/16 10:43:15;;;;;;;8.43;7.57;;;;;;;7.85;92.96;100243.91;5052754;28;20220;-57
2021/12/16 10:45:45;;;;;;;9.63;8.63;;;;;;;7.93;92.76;100250.75;5052744;28;20282;-58
2021/12/16 10:48:21;;;;;;;12.63;8.93;;;;;;;7.99;93.28;100239.53;5052099;28;20224;-59
2021/12/16 10:51:19;;;;;;;12.73;9.00;;;;;;;8.16;93.53;100247.16;5052573;28;20216;-58
2021/12/16 10:54:22;;;;;;;10.13;8.67;;;;;;;8.04;93.19;100253.25;5052847;28;20228;-58
2021/12/16 10:57:09;;;;;;;11.87;8.80;;;;;;;8.17;92.74;100243.69;5052484;28;20247;-57
2021/12/16 10:59:39;;;;;;;8.93;7.97;;;;;;;8.10;93.71;100235.13;5053030;28;20723;-57
2021/12/16 11:02:10;;;;;;;13.47;8.97;;;;;;;8.13;94.28;100235.09;5051736;28;20327;-57
2021/12/16 11:04:45;;;;;;;236.90;24.37;;;;;;;8.29;92.94;100233.25;5052629;28;20216;-57
2021/12/16 11:07:17;;;;;;;60.67;11.63;;;;;;;8.17;90.95;100236.78;5011854;28;20369;-59
2021/12/16 11:09:53;;;;;;;60.87;11.57;;;;;;;8.24;90.82;100243.63;5012559;28;20308;-60
2021/12/16 11:12:28;;;;;;;70.60;10.57;;;;;;;8.21;90.91;100228.16;5012368;28;20225;-59
2021/12/16 11:14:58;;;;;;;57.00;11.47;;;;;;;8.25;91.24;100237.59;5012705;28;20275;-60
2021/12/16 11:17:30;;;;;;;64.37;11.83;;;;;;;8.24;91.71;100235.03;5011847;28;20740;-60
2021/12/16 11:20:01;;;;;;;85.20;14.77;;;;;;;8.26;92.52;100220.34;5012525;28;20257;-60
2021/12/16 11:22:32;;;;;;;18.93;9.30;;;;;;;8.36;93.20;100220.28;5012282;28;20308;-59
2021/12/16 11:25:12;;;;;;;35.37;9.70;;;;;;;8.21;92.70;100206.59;5012517;28;20218;-60
2021/12/16 11:27:42;;;;;;;11.77;8.77;;;;;;;8.07;93.15;100216.19;5012287;28;20243;-59
2021/12/16 11:30:35;;;;;;;20.73;9.27;;;;;;;8.01;92.84;100214.53;5012339;28;20776;-59
2021/12/16 11:33:09;;;;;;;31.20;8.53;;;;;;;7.93;91.79;100209.38;5009452;28;20240;-60
2021/12/16 11:35:42;;;;;;;12.67;6.70;;;;;;;7.90;90.65;100213.75;5026056;28;20228;-59
2021/12/16 11:38:18;;;;;;;14.17;6.73;;;;;;;8.04;90.25;100219.66;5044623;28;20256;-60
2021/12/16 11:41:18;;;;;;;6.93;6.13;;;;;;;8.07;89.69;100221.38;5030559;28;20225;-59
2021/12/16 11:43:54;;;;;;;7.30;6.50;;;;;;;8.03;89.59;100213.63;5028627;28;20625;-59
2021/12/16 11:46:25;;;;;;;7.50;6.13;;;;;;;8.07;89.13;100218.78;5029626;28;20213;-60
2021/12/16 11:48:56;;;;;;;11.17;6.47;;;;;;;7.95;89.50;100218.00;5030762;28;20232;-60
2021/12/16 11:51:29;;;;;;;7.73;6.07;;;;;;;7.88;90.19;100218.06;5027521;28;20653;-57
2021/12/16 11:53:59;;;;;;;9.50;6.63;;;;;;;7.92;89.95;100215.44;5030522;28;20256;-57
2021/12/16 11:56:41;;;;;;;8.20;7.07;;;;;;;8.06;91.13;100209.31;5029888;28;20224;-57
2021/12/16 11:59:08;;;;;;;8.20;6.23;;;;;;;8.13;89.09;100217.00;5028564;28;20197;-57
2021/12/16 12:01:38;;;;;;;7.10;5.93;;;;;;;8.06;88.88;100214.47;5030877;28;20200;-57
2021/12/16 12:04:08;;;;;;;6.43;5.60;;;;;;;8.06;89.22;100209.31;5030161;28;20689;-57
2021/12/16 12:06:37;;;;;;;9.03;5.63;;;;;;;8.02;89.69;100214.50;5030070;28;20201;-58
2021/12/16 12:09:08;;;;;;;6.50;5.97;;;;;;;7.95;90.70;100209.38;5028483;28;20193;-61
2021/12/16 12:11:38;;;;;;;5.67;5.23;;;;;;;8.08;89.40;100203.25;5030547;28;20566;-60
2021/12/16 12:14:09;;;;;;;9.00;5.60;;;;;;;8.03;88.67;100205.00;5028069;28;20692;-57
2021/12/16 12:16:39;;;;;;;6.63;5.97;;;;;;;7.98;89.08;100197.31;5031178;28;20286;-59
2021/12/16 12:19:14;;;;;;;5.63;5.03;;;;;;;7.83;88.46;100179.31;5030141;28;20201;-59
2021/12/16 12:21:45;;;;;;;147.87;13.27;;;;;;;7.94;87.64;100211.13;5030340;28;20227;-60
2021/12/16 12:24:17;;;;;;;125.47;15.30;;;;;;;7.89;88.12;100186.19;5031143;28;20705;-60
2021/12/16 12:26:50;;;;;;;22.80;7.43;;;;;;;8.00;87.97;100197.31;5030972;28;20724;-60
2021/12/16 12:29:20;;;;;;;31.83;8.33;;;;;;;8.05;88.11;100197.25;5030840;28;20276;-59
2021/12/16 12:31:50;;;;;;;99.27;11.30;;;;;;;8.05;89.02;100207.59;5031378;28;20588;-59
2021/12/16 12:34:19;;;;;;;179.07;15.73;;;;;;;8.00;88.59;100198.16;5031008;28;20704;-59
2021/12/16 12:36:50;;;;;;;72.83;9.50;;;;;;;7.95;87.68;100196.47;5031056;28;20197;-60
2021/12/16 12:39:19;;;;;;;30.53;6.37;;;;;;;7.92;88.59;100205.09;5031007;28;20200;-60
2021/12/16 12:41:47;;;;;;;12.50;6.33;;;;;;;7.96;88.60;100198.19;5031037;28;20212;-59
2021/12/16 12:44:15;;;;;;;17.43;6.90;;;;;;;7.98;88.48;100201.63;5031218;28;20204;-60
2021/12/16 12:46:42;;;;;;;7.90;6.90;;;;;;;8.00;87.70;100203.31;5030979;28;20284;-60
2021/12/16 12:49:12;;;;;;;6.40;5.87;;;;;;;8.08;87.49;100208.44;5030951;28;20198;-57
2021/12/16 12:51:42;;;;;;;7.33;6.50;;;;;;;8.06;88.67;100210.16;5031024;28;20197;-56
2021/12/16 12:54:25;;;;;;;7.10;5.57;;;;;;;7.99;88.08;100175.75;5030752;28;20296;-57
2021/12/16 12:56:54;;;;;;;10.27;6.10;;;;;;;8.27;88.58;100203.97;5031002;28;20588;-57
2021/12/16 12:59:32;;;;;;;8.23;5.83;;;;;;;8.23;89.38;100203.16;5030436;28;20198;-57
2021/12/16 13:01:59;;;;;;;6.63;5.60;;;;;;;8.17;88.59;100208.34;5030646;28;20280;-57
2021/12/16 13:04:32;;;;;;;16.80;7.10;;;;;;;8.20;89.65;100217.81;5030502;28;20193;-57
2021/12/16 13:07:02;;;;;;;9.20;8.27;;;;;;;8.22;90.17;100206.59;5030653;28;20293;-57
2021/12/16 13:09:37;;;;;;;10.63;8.53;;;;;;;8.32;89.70;100212.59;5030347;28;20657;-57
2021/12/16 13:12:32;;;;;;;13.43;9.33;;;;;;;8.37;88.79;100203.03;5029997;28;20220;-56
2021/12/16 13:15:08;;;;;;;45.60;10.80;;;;;;;8.31;89.61;100203.06;5028881;28;20876;-57
2021/12/16 13:23:34;;;;;;;8.90;6.50;;;;;;;8.24;90.01;100204.84;5030504;28;20219;-60
2021/12/16 13:29:05;;;;;;;11.63;7.10;;;;;;;8.40;89.40;100208.19;5030203;28;20197;-61
2021/12/16 13:31:47;;;;;;;7.07;6.37;;;;;;;8.44;88.30;100206.44;5030185;28;20646;-59
2021/12/16 13:34:53;;;;;;;9.20;6.30;;;;;;;8.38;89.26;100213.38;5028925;28;20202;-58
2021/12/16 13:37:24;;;;;;;7.90;6.23;;;;;;;8.31;88.96;100200.47;4949644;28;20717;-58
2021/12/16 13:40:00;;;;;;;8.03;6.57;;;;;;;8.32;89.57;100210.00;5001513;28;20248;-58
2021/12/16 13:42:41;;;;;;;6.90;6.20;;;;;;;8.25;91.05;100210.88;5009347;28;20301;-57
2021/12/16 13:45:15;;;;;;;6.10;5.60;;;;;;;7.97;90.74;100185.25;5021540;28;20298;-57